Time;durP1;ratioP1;P1;durP2;ratioP2;P2;SDS_P1;SDS_P2;PMS_P1;PMS_P2;Temp;Humidity;BMP_temperature;BMP_pressure;BME280_temperature;BME280_humidity;BME280_pressure;Samples;Min_cycle;Max_cycle;Signal;HPM_P1;HPM_P2
2024/01/30 00:00:55;;;;;;;12.83;10.50;;;;;;;3.83;100.00;102072.06;5053575;28;20271;-71
2024/01/30 00:03:23;;;;;;;12.70;10.47;;;;;;;3.83;100.00;102072.06;5053452;28;20222;-71
2024/01/30 00:05:52;;;;;;;13.00;10.33;;;;;;;3.81;99.74;102073.91;5053509;28;20206;-71
2024/01/30 00:08:24;;;;;;;13.50;10.47;;;;;;;3.80;100.00;102077.53;5053182;28;20190;-71
2024/01/30 00:10:52;;;;;;;15.00;11.57;;;;;;;3.79;100.00;102073.16;5053420;28;20210;-71
2024/01/30 00:13:21;;;;;;;12.90;10.40;;;;;;;3.77;100.00;102073.22;5053277;28;20268;-71
2024/01/30 00:15:50;;;;;;;13.77;10.80;;;;;;;3.77;100.00;102067.94;5053487;28;20217;-71
2024/01/30 00:18:20;;;;;;;14.50;10.70;;;;;;;3.76;100.00;102073.34;5053348;28;20202;-71
2024/01/30 00:20:48;;;;;;;14.90;11.47;;;;;;;3.75;100.00;102064.53;5052476;28;20300;-71
2024/01/30 00:23:17;;;;;;;12.40;10.53;;;;;;;3.73;99.79;102076.16;5053276;28;20218;-71
2024/01/30 00:25:45;;;;;;;11.60;10.07;;;;;;;3.69;98.83;102077.25;5053281;28;20206;-71
2024/01/30 00:28:13;;;;;;;13.43;10.47;;;;;;;3.67;96.95;102073.81;5053265;28;20210;-71
2024/01/30 00:30:42;;;;;;;12.33;10.10;;;;;;;3.67;97.73;102071.16;5052910;28;20719;-71
2024/01/30 00:33:11;;;;;;;11.30;9.60;;;;;;;3.64;96.64;102066.91;5053037;28;20316;-71
2024/01/30 00:35:41;;;;;;;12.50;9.73;;;;;;;3.61;95.84;102068.88;5052945;28;20218;-71
2024/01/30 00:38:09;;;;;;;12.53;9.63;;;;;;;3.58;95.22;102070.75;5053197;28;20217;-71
2024/01/30 00:40:38;;;;;;;12.97;9.60;;;;;;;3.56;95.09;102064.66;5053214;28;20212;-71
2024/01/30 00:43:06;;;;;;;12.93;10.77;;;;;;;3.54;95.77;102066.56;5053088;28;20230;-71
2024/01/30 00:45:35;;;;;;;10.90;8.80;;;;;;;3.55;94.37;102062.13;5053121;28;20297;-71
2024/01/30 00:48:05;;;;;;;11.33;9.50;;;;;;;3.52;94.49;102057.84;5052791;28;20206;-71
2024/01/30 00:50:33;;;;;;;14.87;10.33;;;;;;;3.51;94.29;102060.56;5053060;28;20285;-72
2024/01/30 00:53:03;;;;;;;14.50;10.33;;;;;;;3.47;93.99;102048.44;5052897;28;20226;-71
2024/01/30 00:55:32;;;;;;;14.07;10.40;;;;;;;3.47;94.18;102053.72;5053037;28;20607;-71
2024/01/30 00:58:00;;;;;;;13.27;10.10;;;;;;;3.44;94.49;102061.84;5052693;28;20206;-71
2024/01/30 01:00:29;;;;;;;14.80;10.90;;;;;;;3.36;94.77;102074.63;5052982;28;20210;-71
2024/01/30 01:02:58;;;;;;;14.40;10.80;;;;;;;3.32;95.81;102070.44;5052677;28;20684;-71
2024/01/30 01:05:26;;;;;;;14.60;10.33;;;;;;;3.31;96.34;102080.19;5052913;28;20283;-71
2024/01/30 01:07:55;;;;;;;15.07;10.87;;;;;;;3.29;97.68;102074.09;5052577;28;20610;-71
2024/01/30 01:10:25;;;;;;;12.27;10.20;;;;;;;3.28;97.35;102079.47;5052588;28;20751;-72
2024/01/30 01:12:53;;;;;;;15.83;10.97;;;;;;;3.28;98.27;102069.75;5052389;28;20210;-71
2024/01/30 01:15:22;;;;;;;13.17;10.03;;;;;;;3.29;99.53;102079.38;5052837;28;20220;-72
2024/01/30 01:17:50;;;;;;;12.87;10.13;;;;;;;3.28;99.11;102075.03;5052829;28;20293;-72
2024/01/30 01:20:19;;;;;;;15.47;12.00;;;;;;;3.29;99.88;102071.44;5052780;28;20210;-72
2024/01/30 01:22:47;;;;;;;15.87;10.57;;;;;;;3.29;100.00;102070.63;5052804;28;20206;-71
2024/01/30 01:25:16;;;;;;;15.07;11.47;;;;;;;3.28;100.00;102074.19;5052673;28;20309;-71
2024/01/30 01:27:51;;;;;;;14.70;11.30;;;;;;;3.28;100.00;102074.19;5052736;28;20209;-71
2024/01/30 01:30:21;;;;;;;16.20;11.50;;;;;;;3.31;100.00;102074.03;5052442;28;20693;-71
2024/01/30 01:32:54;;;;;;;13.43;10.77;;;;;;;3.30;100.00;102067.88;5056272;28;20241;-71
2024/01/30 01:35:24;;;;;;;13.43;10.33;;;;;;;3.36;100.00;102072.81;5055751;28;20321;-71
2024/01/30 01:37:54;;;;;;;14.33;10.87;;;;;;;3.38;100.00;102078.91;5056167;28;20237;-71
2024/01/30 01:40:24;;;;;;;14.97;11.33;;;;;;;3.38;100.00;102070.97;5056162;28;20194;-71
2024/01/30 01:42:55;;;;;;;13.73;10.60;;;;;;;3.40;100.00;102066.44;5055666;28;20205;-71
2024/01/30 01:45:24;;;;;;;14.83;10.97;;;;;;;3.39;100.00;102062.06;5055714;28;20668;-71
2024/01/30 01:47:53;;;;;;;14.00;9.80;;;;;;;3.38;100.00;102063.03;5055944;28;20302;-71
2024/01/30 01:50:22;;;;;;;15.10;10.13;;;;;;;3.37;100.00;102058.66;5055963;28;20236;-71
2024/01/30 01:52:52;;;;;;;13.90;11.07;;;;;;;3.37;100.00;102050.72;5055911;28;20202;-71
2024/01/30 01:55:24;;;;;;;13.93;11.10;;;;;;;3.35;100.00;102052.63;5055763;28;20236;-71
2024/01/30 01:57:55;;;;;;;12.73;10.07;;;;;;;3.35;100.00;102051.75;5055835;28;20190;-72
2024/01/30 02:00:24;;;;;;;13.00;10.50;;;;;;;3.34;100.00;102052.69;5056352;28;20191;-72
2024/01/30 02:02:55;;;;;;;14.03;10.50;;;;;;;3.32;100.00;102047.44;5055622;28;20217;-71
2024/01/30 02:05:24;;;;;;;13.93;10.53;;;;;;;3.32;100.00;102044.81;5055672;28;20189;-71
2024/01/30 02:07:53;;;;;;;14.10;9.87;;;;;;;3.32;100.00;102044.81;5055615;28;20229;-71
2024/01/30 02:10:22;;;;;;;16.10;9.93;;;;;;;3.32;100.00;102044.81;5055538;28;20202;-71
2024/01/30 02:12:51;;;;;;;13.73;10.67;;;;;;;3.31;100.00;102043.13;5055492;28;20248;-71
2024/01/30 02:15:21;;;;;;;13.57;10.77;;;;;;;3.31;100.00;102040.47;5055397;28;20229;-71
2024/01/30 02:17:49;;;;;;;12.23;10.43;;;;;;;3.30;100.00;102041.41;5055465;28;20297;-72
2024/01/30 02:20:18;;;;;;;12.43;9.97;;;;;;;3.30;100.00;102045.84;5055415;28;20206;-72
2024/01/30 02:22:49;;;;;;;13.27;10.57;;;;;;;3.28;100.00;102037.13;5055364;28;20236;-72
2024/01/30 02:25:17;;;;;;;11.83;10.27;;;;;;;3.26;100.00;102034.56;5055476;28;20289;-71
2024/01/30 02:27:46;;;;;;;14.63;10.17;;;;;;;3.27;100.00;102028.34;5055255;28;20217;-71
2024/01/30 02:30:15;;;;;;;11.87;10.10;;;;;;;3.26;100.00;102026.63;5055203;28;20272;-71
2024/01/30 02:32:43;;;;;;;13.13;10.70;;;;;;;3.27;100.00;102015.09;5054852;28;20246;-71
2024/01/30 02:35:12;;;;;;;14.53;10.67;;;;;;;3.27;100.00;102012.44;5054820;28;20233;-71
2024/01/30 02:37:40;;;;;;;14.33;10.37;;;;;;;3.27;100.00;102017.75;5055134;28;20194;-71
2024/01/30 02:40:11;;;;;;;14.53;10.47;;;;;;;3.27;100.00;102008.94;5055024;28;20201;-71
2024/01/30 02:42:40;;;;;;;13.70;11.10;;;;;;;3.26;100.00;102013.38;5054133;28;20206;-71
2024/01/30 02:45:10;;;;;;;12.57;10.40;;;;;;;3.27;100.00;102012.44;5054563;28;20704;-71
2024/01/30 02:47:39;;;;;;;13.47;9.97;;;;;;;3.27;100.00;102008.94;5054897;28;20294;-71
2024/01/30 02:50:08;;;;;;;14.20;11.17;;;;;;;3.26;100.00;102005.44;5054518;28;20614;-71
2024/01/30 02:52:37;;;;;;;14.00;10.17;;;;;;;3.27;100.00;102004.50;5054806;28;20210;-72
2024/01/30 02:55:06;;;;;;;13.23;10.63;;;;;;;3.27;100.00;102001.88;5054596;28;20230;-71
2024/01/30 02:57:36;;;;;;;14.70;11.00;;;;;;;3.28;100.00;102006.22;5054669;28;20211;-71
2024/01/30 03:00:09;;;;;;;13.03;10.40;;;;;;;3.27;100.00;101988.63;5054358;28;20213;-71
2024/01/30 03:02:38;;;;;;;12.93;10.10;;;;;;;3.28;100.00;101995.66;5054327;28;20698;-72
2024/01/30 03:05:09;;;;;;;13.97;10.93;;;;;;;3.27;100.00;101988.63;5054461;28;20305;-72
2024/01/30 03:07:37;;;;;;;13.53;10.33;;;;;;;3.27;100.00;101982.47;5054511;28;20633;-72
2024/01/30 03:10:06;;;;;;;14.27;10.43;;;;;;;3.26;100.00;101981.63;5054475;28;20202;-72
2024/01/30 03:12:36;;;;;;;12.20;10.63;;;;;;;3.25;100.00;101985.22;5054086;28;20217;-72
2024/01/30 03:15:05;;;;;;;12.70;10.57;;;;;;;3.26;100.00;101980.75;5054122;28;20226;-71
2024/01/30 03:17:34;;;;;;;14.90;10.47;;;;;;;3.26;100.00;101986.91;5054235;28;20206;-71
2024/01/30 03:20:03;;;;;;;13.40;10.43;;;;;;;3.25;100.00;101982.59;5053895;28;20245;-71
2024/01/30 03:22:32;;;;;;;14.23;11.10;;;;;;;3.23;100.00;101971.22;5054222;28;20324;-71
2024/01/30 03:25:00;;;;;;;14.43;10.93;;;;;;;3.23;100.00;101971.22;5053764;28;20704;-71
2024/01/30 03:27:29;;;;;;;12.87;10.87;;;;;;;3.23;100.00;101973.84;5054123;28;20210;-71
2024/01/30 03:29:59;;;;;;;13.33;10.63;;;;;;;3.22;100.00;101966.84;5053782;28;20300;-71
2024/01/30 03:32:28;;;;;;;13.40;10.63;;;;;;;3.22;100.00;101974.78;5054022;28;20210;-71
2024/01/30 03:34:57;;;;;;;12.80;10.73;;;;;;;3.22;100.00;101974.78;5053686;28;20323;-71
2024/01/30 03:37:26;;;;;;;14.13;11.33;;;;;;;3.21;100.00;101986.31;5054002;28;20194;-71
2024/01/30 03:39:55;;;;;;;12.93;10.97;;;;;;;3.20;100.00;101981.97;5053961;28;20210;-71
2024/01/30 03:42:25;;;;;;;15.33;11.50;;;;;;;3.21;100.00;101988.97;5053849;28;20229;-71
2024/01/30 03:44:54;;;;;;;15.07;11.20;;;;;;;3.18;100.00;101981.22;5053841;28;20313;-71
2024/01/30 03:47:24;;;;;;;15.33;11.67;;;;;;;3.20;100.00;101976.66;5053765;28;20206;-71
2024/01/30 03:49:53;;;;;;;15.23;11.97;;;;;;;3.21;100.00;101972.22;5053724;28;20202;-71
2024/01/30 03:52:21;;;;;;;15.63;11.77;;;;;;;3.20;100.00;101971.38;5053679;28;20217;-71
2024/01/30 03:54:50;;;;;;;12.70;10.40;;;;;;;3.20;100.00;101965.22;5053428;28;20368;-71
2024/01/30 03:57:19;;;;;;;14.97;11.07;;;;;;;3.18;100.00;101965.31;5053645;28;20202;-71
2024/01/30 03:59:47;;;;;;;15.27;11.73;;;;;;;3.18;100.00;101961.81;5053262;28;20253;-71
2024/01/30 04:02:16;;;;;;;14.60;11.77;;;;;;;3.17;100.00;101965.41;5053559;28;20210;-71
2024/01/30 04:04:46;;;;;;;14.73;11.50;;;;;;;3.14;100.00;101963.78;5053499;28;20226;-71
2024/01/30 04:07:15;;;;;;;12.40;11.10;;;;;;;3.14;100.00;101970.84;5053780;28;20679;-71
2024/01/30 04:09:43;;;;;;;15.30;10.30;;;;;;;3.13;100.00;101975.28;5053472;28;20213;-71
2024/01/30 04:12:12;;;;;;;16.07;11.30;;;;;;;3.12;100.00;101978.03;5053157;28;20758;-71
2024/01/30 04:14:41;;;;;;;14.00;11.13;;;;;;;3.11;100.00;101971.03;5052972;28;20779;-71
2024/01/30 04:17:09;;;;;;;16.07;11.17;;;;;;;3.09;100.00;101973.75;5053417;28;20202;-71
2024/01/30 04:19:39;;;;;;;15.13;11.10;;;;;;;3.09;100.00;101973.75;5053012;28;20635;-71
2024/01/30 04:22:09;;;;;;;14.20;10.97;;;;;;;3.08;100.00;101970.22;5053104;28;20671;-71
2024/01/30 04:24:38;;;;;;;13.50;11.17;;;;;;;3.08;100.00;101964.94;5052923;28;20553;-71
2024/01/30 04:27:06;;;;;;;13.00;10.67;;;;;;;3.08;100.00;101970.22;5053284;28;20206;-72
2024/01/30 04:29:35;;;;;;;11.70;10.40;;;;;;;3.08;100.00;101964.13;5053288;28;20201;-72
2024/01/30 04:32:04;;;;;;;14.27;11.13;;;;;;;3.07;100.00;101965.03;5053266;28;20216;-67
2024/01/30 04:34:32;;;;;;;13.70;11.13;;;;;;;3.06;100.00;101963.31;5052791;28;20658;-67
2024/01/30 04:37:01;;;;;;;14.03;10.13;;;;;;;3.04;100.00;101970.50;5052784;28;20232;-67
2024/01/30 04:39:31;;;;;;;13.80;10.90;;;;;;;3.03;100.00;101968.78;5052867;28;20578;-67
2024/01/30 04:41:59;;;;;;;16.77;11.03;;;;;;;3.03;100.00;101967.00;5053176;28;20238;-67
2024/01/30 04:44:28;;;;;;;12.77;10.47;;;;;;;3.02;100.00;101967.06;5053030;28;20280;-66
2024/01/30 04:46:58;;;;;;;14.43;10.50;;;;;;;3.03;100.00;101968.78;5052793;28;20739;-66
2024/01/30 04:49:27;;;;;;;14.00;10.60;;;;;;;3.01;100.00;101965.38;5053094;28;20214;-67
2024/01/30 04:51:56;;;;;;;14.73;10.70;;;;;;;3.00;100.00;101968.94;5053033;28;20205;-67
2024/01/30 04:54:25;;;;;;;14.97;10.63;;;;;;;3.00;100.00;101971.59;5052962;28;20232;-67
2024/01/30 04:56:55;;;;;;;14.40;10.90;;;;;;;3.00;100.00;101963.66;5052644;28;20229;-67
2024/01/30 04:59:24;;;;;;;13.23;10.10;;;;;;;2.99;100.00;101972.53;5052675;28;20305;-67
2024/01/30 05:01:52;;;;;;;12.33;10.60;;;;;;;2.98;100.00;101958.44;5052651;28;20704;-67
2024/01/30 05:04:21;;;;;;;12.23;9.83;;;;;;;2.98;100.00;101949.66;5052839;28;20226;-67
2024/01/30 05:06:50;;;;;;;14.17;10.87;;;;;;;2.97;100.00;101955.91;5055200;28;20331;-67
2024/01/30 05:09:20;;;;;;;15.77;10.53;;;;;;;2.97;100.00;101954.09;5056356;28;20676;-66
2024/01/30 05:11:48;;;;;;;14.27;10.70;;;;;;;2.97;100.00;101958.53;5056350;28;20795;-67
2024/01/30 05:14:18;;;;;;;13.13;10.17;;;;;;;2.97;100.00;101959.41;5056535;28;20317;-67
2024/01/30 05:16:47;;;;;;;12.03;10.17;;;;;;;2.98;100.00;101958.44;5056503;28;20230;-67
2024/01/30 05:19:17;;;;;;;13.03;10.00;;;;;;;2.99;100.00;101959.31;5056275;28;20668;-67
2024/01/30 05:21:45;;;;;;;13.00;10.70;;;;;;;2.99;100.00;101961.94;5056592;28;20245;-67
2024/01/30 05:24:14;;;;;;;14.23;10.03;;;;;;;3.01;100.00;101960.09;5056384;28;20312;-67
2024/01/30 05:26:42;;;;;;;14.07;10.00;;;;;;;3.00;100.00;101963.66;5056377;28;20209;-67
2024/01/30 05:29:11;;;;;;;13.27;10.40;;;;;;;3.00;100.00;101958.38;5056068;28;20743;-67
2024/01/30 05:31:41;;;;;;;11.33;9.70;;;;;;;2.99;100.00;101952.22;5056294;28;20209;-67
2024/01/30 05:34:09;;;;;;;14.60;10.00;;;;;;;3.01;100.00;101957.44;5056189;28;20264;-67
2024/01/30 05:36:38;;;;;;;12.13;9.60;;;;;;;3.01;100.00;101954.81;5055808;28;20226;-67
2024/01/30 05:39:07;;;;;;;13.33;9.70;;;;;;;3.00;100.00;101953.94;5056750;28;20633;-67
2024/01/30 05:41:36;;;;;;;12.53;9.57;;;;;;;3.00;100.00;101963.66;5056422;28;20285;-67
2024/01/30 05:44:05;;;;;;;13.30;10.40;;;;;;;3.00;100.00;101964.53;5055556;28;20730;-67
2024/01/30 05:46:36;;;;;;;12.27;9.60;;;;;;;2.99;100.00;101956.66;5055955;28;20268;-67
2024/01/30 05:49:06;;;;;;;14.73;9.63;;;;;;;2.98;100.00;101952.28;5055730;28;20237;-67
2024/01/30 05:51:34;;;;;;;12.73;10.27;;;;;;;2.97;100.00;101958.53;5055904;28;20210;-67
2024/01/30 05:54:04;;;;;;;12.70;9.93;;;;;;;2.98;100.00;101968.16;5055783;28;20324;-67
2024/01/30 05:56:32;;;;;;;12.80;9.60;;;;;;;2.96;100.00;101959.47;5055482;28;20262;-66
2024/01/30 05:59:01;;;;;;;12.57;10.07;;;;;;;2.96;100.00;101962.13;5055469;28;20660;-67
2024/01/30 06:01:30;;;;;;;13.00;9.93;;;;;;;2.94;100.00;101962.22;5055366;28;20746;-67
2024/01/30 06:03:58;;;;;;;12.90;9.53;;;;;;;2.94;100.00;101954.28;5055571;28;20233;-67
2024/01/30 06:06:29;;;;;;;14.70;10.47;;;;;;;2.92;100.00;101955.28;5055548;28;20209;-67
2024/01/30 06:08:57;;;;;;;15.43;10.93;;;;;;;2.90;100.00;101958.00;5055546;28;20214;-67
2024/01/30 06:11:26;;;;;;;12.93;10.10;;;;;;;2.90;100.00;101952.72;5055416;28;20245;-67
2024/01/30 06:13:54;;;;;;;15.53;10.80;;;;;;;2.91;100.00;101953.59;5055446;28;20309;-67
2024/01/30 06:16:23;;;;;;;12.70;10.10;;;;;;;2.90;100.00;101957.16;5055018;28;20628;-67
2024/01/30 06:18:51;;;;;;;14.40;10.37;;;;;;;2.90;100.00;101951.88;5053874;28;20202;-67
2024/01/30 06:21:20;;;;;;;15.40;10.70;;;;;;;2.89;100.00;101950.16;5055021;28;20736;-67
2024/01/30 06:23:50;;;;;;;15.77;11.80;;;;;;;2.88;100.00;101946.66;5054901;28;20663;-67
2024/01/30 06:26:18;;;;;;;16.70;11.40;;;;;;;2.88;100.00;101948.44;5055260;28;20206;-67
2024/01/30 06:28:47;;;;;;;16.07;10.93;;;;;;;2.85;100.00;101944.16;5055202;28;20292;-66
2024/01/30 06:31:15;;;;;;;14.77;10.97;;;;;;;2.86;100.00;101934.44;5055152;28;20241;-66
2024/01/30 06:33:44;;;;;;;17.17;11.77;;;;;;;2.87;100.00;101944.09;5055083;28;20230;-66
2024/01/30 06:36:12;;;;;;;16.20;11.63;;;;;;;2.87;100.00;101936.16;5054595;28;20581;-67
2024/01/30 06:38:41;;;;;;;14.90;11.73;;;;;;;2.86;100.00;101939.72;5054703;28;20301;-67
2024/01/30 06:41:11;;;;;;;16.43;11.67;;;;;;;2.86;100.00;101934.44;5054663;28;20609;-67
2024/01/30 06:43:39;;;;;;;16.30;12.37;;;;;;;2.86;100.00;101929.16;5054883;28;20269;-67
2024/01/30 06:46:08;;;;;;;15.47;11.80;;;;;;;2.86;100.00;101929.16;5054846;28;20284;-67
2024/01/30 06:48:37;;;;;;;14.33;11.23;;;;;;;2.86;100.00;101918.56;5054768;28;20256;-67
2024/01/30 06:51:05;;;;;;;17.40;11.80;;;;;;;2.86;100.00;101926.50;5054455;28;20241;-67
2024/01/30 06:53:34;;;;;;;17.13;11.43;;;;;;;2.86;100.00;101916.78;5054653;28;20329;-67
2024/01/30 06:56:02;;;;;;;14.00;11.60;;;;;;;2.88;100.00;101919.34;5054137;28;20735;-67
2024/01/30 06:58:32;;;;;;;15.87;11.00;;;;;;;2.86;100.00;101926.50;5054476;28;20260;-67
2024/01/30 07:01:01;;;;;;;16.30;11.60;;;;;;;2.86;100.00;101930.00;5054335;28;20225;-67
2024/01/30 07:03:30;;;;;;;17.83;11.87;;;;;;;2.86;100.00;101929.16;5054293;28;20222;-67
2024/01/30 07:05:59;;;;;;;17.63;11.43;;;;;;;2.86;100.00;101929.16;5054227;28;20632;-67
2024/01/30 07:08:28;;;;;;;15.40;11.10;;;;;;;2.87;100.00;101925.59;5054515;28;20233;-67
2024/01/30 07:10:56;;;;;;;16.83;11.17;;;;;;;2.87;100.00;101931.72;5054597;28;20206;-66
2024/01/30 07:13:29;;;;;;;16.80;12.50;;;;;;;2.89;100.00;101926.34;5054272;28;20237;-67
2024/01/30 07:15:59;;;;;;;16.47;12.60;;;;;;;2.91;100.00;101924.50;5054020;28;20256;-66
2024/01/30 07:18:28;;;;;;;14.23;11.37;;;;;;;2.92;100.00;101928.81;5054232;28;20267;-66
2024/01/30 07:20:56;;;;;;;17.77;11.57;;;;;;;2.94;100.00;101937.53;5054186;28;20292;-66
2024/01/30 07:23:25;;;;;;;14.83;11.23;;;;;;;2.95;100.00;101939.22;5054093;28;20275;-67
2024/01/30 07:25:53;;;;;;;14.13;11.77;;;;;;;2.99;100.00;101936.34;5053845;28;20767;-66
2024/01/30 07:28:22;;;;;;;19.80;11.07;;;;;;;3.00;100.00;101931.91;5053487;28;20735;-66
2024/01/30 07:30:50;;;;;;;16.37;10.47;;;;;;;3.03;100.00;101937.03;5053782;28;20600;-66
2024/01/30 07:33:20;;;;;;;15.87;11.00;;;;;;;3.04;100.00;101934.31;5053902;28;20230;-66
2024/01/30 07:35:49;;;;;;;15.70;10.40;;;;;;;3.06;100.00;101934.22;5053530;28;20676;-67
2024/01/30 07:38:18;;;;;;;15.07;10.50;;;;;;;3.07;100.00;101930.66;5053802;28;20237;-66
2024/01/30 07:40:46;;;;;;;12.60;9.97;;;;;;;3.07;100.00;101943.88;5053606;28;20264;-66
2024/01/30 07:43:15;;;;;;;17.13;11.37;;;;;;;3.10;100.00;101932.25;5053822;28;20258;-66
2024/01/30 07:45:43;;;;;;;15.10;10.90;;;;;;;3.09;100.00;101931.41;5053760;28;20213;-67
2024/01/30 07:48:12;;;;;;;14.53;10.67;;;;;;;3.12;100.00;101933.88;5053775;28;20210;-66
2024/01/30 07:50:42;;;;;;;14.53;10.63;;;;;;;3.14;100.00;101934.66;5053373;28;20568;-66
2024/01/30 07:53:11;;;;;;;17.50;11.90;;;;;;;3.17;100.00;101934.50;5053947;28;20210;-67
2024/01/30 07:55:39;;;;;;;14.27;10.97;;;;;;;3.18;100.00;101936.22;5053687;28;20293;-66
2024/01/30 07:58:08;;;;;;;13.40;10.40;;;;;;;3.19;100.00;101935.25;5053532;28;20598;-67
2024/01/30 08:00:37;;;;;;;18.53;11.70;;;;;;;3.21;100.00;101935.19;5053526;28;20210;-67
2024/01/30 08:03:06;;;;;;;15.77;10.37;;;;;;;3.22;100.00;101935.09;5053513;28;20261;-67
2024/01/30 08:05:34;;;;;;;13.83;10.50;;;;;;;3.24;100.00;101935.88;5053544;28;20241;-67
2024/01/30 08:08:05;;;;;;;16.10;11.27;;;;;;;3.26;100.00;101927.84;5053535;28;20217;-67
2024/01/30 08:10:33;;;;;;;17.27;10.73;;;;;;;3.27;100.00;101933.06;5053471;28;20296;-66
2024/01/30 08:13:02;;;;;;;14.53;11.37;;;;;;;3.31;100.00;101928.44;5053395;28;20210;-67
2024/01/30 08:15:30;;;;;;;15.40;11.07;;;;;;;3.33;100.00;101929.19;5053417;28;20205;-67
2024/01/30 08:17:59;;;;;;;12.27;10.80;;;;;;;3.35;100.00;101928.19;5053308;28;20253;-66
2024/01/30 08:20:27;;;;;;;16.57;12.07;;;;;;;3.37;100.00;101936.91;5053356;28;20312;-66
2024/01/30 08:22:56;;;;;;;16.53;11.63;;;;;;;3.40;100.00;101928.78;5053261;28;20304;-66
2024/01/30 08:25:26;;;;;;;14.53;11.57;;;;;;;3.45;100.00;101928.53;5053016;28;20244;-66
2024/01/30 08:27:54;;;;;;;14.63;11.70;;;;;;;3.49;100.00;101927.44;5053283;28;20202;-66
2024/01/30 08:30:23;;;;;;;17.23;11.70;;;;;;;3.52;100.00;101920.16;5053294;28;20212;-66
2024/01/30 08:32:52;;;;;;;18.77;12.27;;;;;;;3.55;100.00;101920.00;5053236;28;20289;-66
2024/01/30 08:35:20;;;;;;;22.23;13.37;;;;;;;3.64;100.00;101915.09;5053065;28;20220;-66
2024/01/30 08:37:49;;;;;;;24.77;14.00;;;;;;;3.64;100.00;101917.75;5053194;28;20220;-66
2024/01/30 08:40:18;;;;;;;28.80;15.70;;;;;;;3.65;100.00;101920.31;5053175;28;20327;-66
2024/01/30 08:42:48;;;;;;;28.90;15.20;;;;;;;3.68;100.00;101913.97;5057109;28;20209;-67
2024/01/30 08:45:16;;;;;;;20.57;14.33;;;;;;;3.72;100.00;101915.53;5057142;28;20396;-66
2024/01/30 08:47:45;;;;;;;17.67;11.87;;;;;;;3.74;100.00;101918.91;5057150;28;20308;-66
2024/01/30 08:50:14;;;;;;;16.87;12.23;;;;;;;3.79;100.00;101908.94;5056807;28;20210;-66
2024/01/30 08:52:42;;;;;;;15.00;10.83;;;;;;;3.80;100.00;101915.94;5057007;28;20272;-66
2024/01/30 08:55:13;;;;;;;14.40;11.27;;;;;;;3.84;100.00;101914.81;5057315;28;20686;-67
2024/01/30 08:57:41;;;;;;;14.87;11.57;;;;;;;3.89;100.00;101918.06;5056900;28;20317;-67
2024/01/30 09:00:13;;;;;;;18.60;11.70;;;;;;;3.91;100.00;101916.16;5056580;28;20734;-67
2024/01/30 09:02:41;;;;;;;14.00;11.37;;;;;;;3.95;100.00;101923.00;5056943;28;20190;-67
2024/01/30 09:05:11;;;;;;;14.43;12.10;;;;;;;3.98;100.00;101918.38;5056726;28;20284;-67
2024/01/30 09:07:39;;;;;;;15.63;11.73;;;;;;;4.02;100.00;101919.03;5056710;28;20202;-67
2024/01/30 09:10:08;;;;;;;17.20;12.47;;;;;;;4.06;100.00;101915.28;5056688;28;20256;-67
2024/01/30 09:12:41;;;;;;;17.03;12.00;;;;;;;4.13;100.00;101915.75;5056369;28;20217;-67
2024/01/30 09:15:12;;;;;;;15.60;11.27;;;;;;;4.19;100.00;101916.25;5056552;28;20288;-67
2024/01/30 09:17:40;;;;;;;14.73;11.23;;;;;;;4.25;100.00;101917.66;5056197;28;20634;-67
2024/01/30 09:20:10;;;;;;;13.37;10.70;;;;;;;4.31;100.00;101918.19;5056552;28;20252;-67
2024/01/30 09:22:39;;;;;;;14.90;11.00;;;;;;;4.45;100.00;101926.13;5056219;28;20210;-67
2024/01/30 09:25:07;;;;;;;15.50;11.67;;;;;;;4.48;100.00;101928.63;5056078;28;20317;-67
2024/01/30 09:27:36;;;;;;;14.90;11.00;;;;;;;4.48;100.00;101925.13;5056375;28;20209;-67
2024/01/30 09:30:05;;;;;;;14.40;11.17;;;;;;;4.54;100.00;101927.41;5056385;28;20210;-67
2024/01/30 09:32:35;;;;;;;12.97;11.03;;;;;;;4.56;100.00;101926.34;5056000;28;20296;-67
2024/01/30 09:35:04;;;;;;;15.93;11.37;;;;;;;4.58;100.00;101924.47;5056036;28;20241;-67
2024/01/30 09:37:33;;;;;;;14.20;10.57;;;;;;;4.62;100.00;101924.28;5056069;28;20190;-67
2024/01/30 09:40:02;;;;;;;14.80;11.90;;;;;;;4.63;100.00;101926.84;5057028;28;20206;-67
2024/01/30 09:42:36;;;;;;;16.40;10.53;;;;;;;4.67;100.00;101922.19;5056193;28;20222;-67
2024/01/30 09:45:06;;;;;;;15.20;10.70;;;;;;;4.72;100.00;101925.44;5056041;28;20226;-67
2024/01/30 09:47:41;;;;;;;17.47;11.90;;;;;;;4.77;100.00;101924.19;5056058;28;20241;-67
2024/01/30 09:50:11;;;;;;;16.67;10.70;;;;;;;4.78;100.00;101922.41;5056005;28;20197;-67
2024/01/30 09:52:40;;;;;;;12.00;10.40;;;;;;;4.82;100.00;101918.63;5055607;28;20206;-67
2024/01/30 09:55:10;;;;;;;14.83;11.50;;;;;;;4.84;100.00;101925.53;5055502;28;20238;-67
2024/01/30 09:57:39;;;;;;;13.47;10.03;;;;;;;4.87;100.00;101921.81;5055773;28;20256;-67
2024/01/30 10:00:08;;;;;;;13.90;10.87;;;;;;;4.93;100.00;101924.13;5055833;28;20209;-67
2024/01/30 10:02:39;;;;;;;14.03;10.63;;;;;;;4.97;100.00;101915.00;5056017;28;20312;-67
2024/01/30 10:05:08;;;;;;;15.87;10.53;;;;;;;4.99;100.00;101923.72;5055395;28;20603;-67
2024/01/30 10:07:37;;;;;;;14.33;11.50;;;;;;;5.02;100.00;101924.38;5055390;28;20297;-66
2024/01/30 10:10:07;;;;;;;13.93;11.23;;;;;;;5.05;100.00;101918.03;5055678;28;20293;-66
2024/01/30 10:12:36;;;;;;;14.87;10.50;;;;;;;5.07;100.00;101914.31;5055277;28;20206;-66
2024/01/30 10:15:08;;;;;;;13.03;10.23;;;;;;;5.12;100.00;101919.34;5055237;28;20748;-66
2024/01/30 10:17:40;;;;;;;14.20;10.90;;;;;;;5.18;100.00;101918.94;5055460;28;20226;-66
2024/01/30 10:20:10;;;;;;;15.17;9.83;;;;;;;5.22;100.00;101920.47;5055388;28;20210;-67
2024/01/30 10:22:40;;;;;;;14.10;11.37;;;;;;;5.28;100.00;101909.44;5055332;28;20267;-67
2024/01/30 10:25:10;;;;;;;13.43;10.13;;;;;;;5.31;100.00;101911.91;5055271;28;20320;-67
2024/01/30 10:27:41;;;;;;;12.90;10.10;;;;;;;5.36;100.00;101911.63;5055273;28;20234;-67
2024/01/30 10:30:10;;;;;;;13.77;10.60;;;;;;;5.40;100.00;101918.44;5054958;28;20641;-67
2024/01/30 10:32:38;;;;;;;17.50;11.57;;;;;;;5.46;100.00;101908.28;5055201;28;20248;-67
2024/01/30 10:35:09;;;;;;;16.37;11.43;;;;;;;5.50;100.00;101912.44;5054833;28;20245;-67
2024/01/30 10:37:37;;;;;;;14.73;11.43;;;;;;;5.56;100.00;101904.06;5055134;28;20196;-66
2024/01/30 10:40:09;;;;;;;16.50;11.57;;;;;;;5.58;100.00;101896.84;5054963;28;20237;-67
2024/01/30 10:42:40;;;;;;;14.87;10.23;;;;;;;5.62;100.00;101901.00;5055063;28;20252;-67
2024/01/30 10:45:09;;;;;;;14.90;10.50;;;;;;;5.68;100.00;101898.91;5054895;28;20329;-67
2024/01/30 10:47:40;;;;;;;12.17;10.47;;;;;;;5.73;100.00;101904.75;5054889;28;20217;-67
2024/01/30 10:50:12;;;;;;;13.23;9.87;;;;;;;5.77;100.00;101904.47;5054931;28;20271;-67
2024/01/30 10:52:42;;;;;;;13.90;10.37;;;;;;;6.23;100.00;101904.09;5054840;28;20201;-68
2024/01/30 10:55:10;;;;;;;12.00;9.97;;;;;;;6.30;100.00;101898.22;5054416;28;20222;-67
2024/01/30 10:57:40;;;;;;;13.57;9.97;;;;;;;6.34;100.00;101893.56;5054756;28;20256;-67
2024/01/30 11:00:11;;;;;;;11.77;8.90;;;;;;;6.27;100.00;101898.44;5054523;28;20226;-67
2024/01/30 11:02:42;;;;;;;12.87;9.73;;;;;;;6.39;100.00;101891.44;5054605;28;20260;-67
2024/01/30 11:05:12;;;;;;;12.00;9.60;;;;;;;6.39;100.00;101892.31;5053803;28;20308;-67
2024/01/30 11:07:42;;;;;;;13.73;9.93;;;;;;;6.40;100.00;101888.69;5054564;28;20281;-67
2024/01/30 11:10:14;;;;;;;12.60;9.40;;;;;;;6.34;100.00;101886.44;5054109;28;20209;-66
2024/01/30 11:12:46;;;;;;;11.73;9.13;;;;;;;6.37;100.00;101886.22;5054097;28;20580;-66
2024/01/30 11:15:17;;;;;;;15.83;9.47;;;;;;;6.59;100.00;101886.44;5054342;28;20233;-66
2024/01/30 11:17:51;;;;;;;14.47;10.37;;;;;;;6.60;100.00;101881.97;5054343;28;20216;-66
2024/01/30 11:20:26;;;;;;;11.43;9.70;;;;;;;6.54;100.00;101883.25;5053898;28;20687;-67